sensor_id;sensor_type;location;lat;lon;timestamp;P1;durP1;ratioP1;P2;durP2;ratioP2
14698;SDS011;7439;50.804;4.602;2023-04-01T00:02:01;186.90;;;179.57;;
14698;SDS011;7439;50.804;4.602;2023-04-01T00:04:29;187.20;;;179.93;;
14698;SDS011;7439;50.804;4.602;2023-04-01T00:06:57;181.33;;;174.20;;
14698;SDS011;7439;50.804;4.602;2023-04-01T00:09:25;167.77;;;161.43;;
14698;SDS011;7439;50.804;4.602;2023-04-01T00:11:52;170.70;;;163.60;;
14698;SDS011;7439;50.804;4.602;2023-04-01T00:14:20;163.80;;;157.00;;
14698;SDS011;7439;50.804;4.602;2023-04-01T00:16:49;164.23;;;157.87;;
14698;SDS011;7439;50.804;4.602;2023-04-01T00:19:17;163.13;;;156.33;;
14698;SDS011;7439;50.804;4.602;2023-04-01T00:21:45;160.53;;;154.03;;
14698;SDS011;7439;50.804;4.602;2023-04-01T00:24:13;165.83;;;159.03;;
14698;SDS011;7439;50.804;4.602;2023-04-01T00:26:40;172.73;;;165.50;;
14698;SDS011;7439;50.804;4.602;2023-04-01T00:29:09;167.03;;;160.10;;
14698;SDS011;7439;50.804;4.602;2023-04-01T00:31:36;165.57;;;158.57;;
14698;SDS011;7439;50.804;4.602;2023-04-01T00:34:05;163.97;;;156.90;;
14698;SDS011;7439;50.804;4.602;2023-04-01T00:36:32;162.60;;;156.40;;
14698;SDS011;7439;50.804;4.602;2023-04-01T00:39:00;160.70;;;154.27;;
14698;SDS011;7439;50.804;4.602;2023-04-01T00:41:27;154.80;;;148.73;;
14698;SDS011;7439;50.804;4.602;2023-04-01T00:46:37;149.00;;;143.03;;
14698;SDS011;7439;50.804;4.602;2023-04-01T00:49:06;146.30;;;140.63;;
14698;SDS011;7439;50.804;4.602;2023-04-01T00:51:34;144.17;;;138.60;;
14698;SDS011;7439;50.804;4.602;2023-04-01T00:54:06;143.53;;;137.93;;
14698;SDS011;7439;50.804;4.602;2023-04-01T00:56:35;133.97;;;128.67;;
14698;SDS011;7439;50.804;4.602;2023-04-01T00:59:05;134.53;;;129.47;;
14698;SDS011;7439;50.804;4.602;2023-04-01T01:01:33;124.27;;;119.27;;
14698;SDS011;7439;50.804;4.602;2023-04-01T01:04:01;126.23;;;121.13;;
14698;SDS011;7439;50.804;4.602;2023-04-01T01:06:37;125.73;;;120.53;;
14698;SDS011;7439;50.804;4.602;2023-04-01T01:09:08;123.50;;;118.63;;
14698;SDS011;7439;50.804;4.602;2023-04-01T01:11:39;117.97;;;113.27;;
14698;SDS011;7439;50.804;4.602;2023-04-01T01:14:09;120.60;;;115.60;;
14698;SDS011;7439;50.804;4.602;2023-04-01T01:16:40;117.27;;;112.43;;
14698;SDS011;7439;50.804;4.602;2023-04-01T01:19:14;117.60;;;112.93;;
14698;SDS011;7439;50.804;4.602;2023-04-01T01:21:54;116.07;;;111.47;;
14698;SDS011;7439;50.804;4.602;2023-04-01T01:24:26;118.93;;;114.40;;
14698;SDS011;7439;50.804;4.602;2023-04-01T01:26:59;116.27;;;111.77;;
14698;SDS011;7439;50.804;4.602;2023-04-01T01:32:14;118.43;;;113.77;;
14698;SDS011;7439;50.804;4.602;2023-04-01T01:34:46;126.10;;;121.17;;
14698;SDS011;7439;50.804;4.602;2023-04-01T01:37:19;119.23;;;114.73;;
14698;SDS011;7439;50.804;4.602;2023-04-01T01:39:51;119.27;;;114.63;;
14698;SDS011;7439;50.804;4.602;2023-04-01T01:42:21;115.83;;;111.50;;
14698;SDS011;7439;50.804;4.602;2023-04-01T01:44:49;123.00;;;118.30;;
14698;SDS011;7439;50.804;4.602;2023-04-01T01:47:18;122.20;;;117.47;;
14698;SDS011;7439;50.804;4.602;2023-04-01T01:49:46;126.20;;;121.03;;
14698;SDS011;7439;50.804;4.602;2023-04-01T01:52:14;129.07;;;123.87;;
14698;SDS011;7439;50.804;4.602;2023-04-01T01:54:48;127.63;;;122.47;;
14698;SDS011;7439;50.804;4.602;2023-04-01T01:57:16;134.87;;;129.10;;
14698;SDS011;7439;50.804;4.602;2023-04-01T01:59:44;137.30;;;131.70;;
14698;SDS011;7439;50.804;4.602;2023-04-01T02:02:13;139.77;;;134.13;;
14698;SDS011;7439;50.804;4.602;2023-04-01T02:04:42;145.47;;;139.73;;
14698;SDS011;7439;50.804;4.602;2023-04-01T02:07:11;146.13;;;140.33;;
14698;SDS011;7439;50.804;4.602;2023-04-01T02:09:39;143.37;;;137.67;;
14698;SDS011;7439;50.804;4.602;2023-04-01T02:12:08;152.07;;;145.57;;
14698;SDS011;7439;50.804;4.602;2023-04-01T02:14:39;150.47;;;144.50;;
14698;SDS011;7439;50.804;4.602;2023-04-01T02:17:09;150.47;;;144.17;;
14698;SDS011;7439;50.804;4.602;2023-04-01T02:19:38;148.00;;;142.03;;
14698;SDS011;7439;50.804;4.602;2023-04-01T02:22:06;147.27;;;141.07;;
14698;SDS011;7439;50.804;4.602;2023-04-01T02:24:36;138.73;;;133.07;;
14698;SDS011;7439;50.804;4.602;2023-04-01T02:27:04;165.87;;;159.10;;
14698;SDS011;7439;50.804;4.602;2023-04-01T02:29:33;177.20;;;170.27;;
14698;SDS011;7439;50.804;4.602;2023-04-01T02:32:01;142.33;;;136.63;;
14698;SDS011;7439;50.804;4.602;2023-04-01T02:34:29;178.97;;;172.13;;
14698;SDS011;7439;50.804;4.602;2023-04-01T02:36:56;168.23;;;161.53;;
14698;SDS011;7439;50.804;4.602;2023-04-01T02:39:24;176.77;;;169.87;;
14698;SDS011;7439;50.804;4.602;2023-04-01T02:41:52;178.30;;;171.20;;
14698;SDS011;7439;50.804;4.602;2023-04-01T02:44:20;187.73;;;180.73;;
14698;SDS011;7439;50.804;4.602;2023-04-01T02:46:48;180.77;;;173.77;;
14698;SDS011;7439;50.804;4.602;2023-04-01T02:49:16;174.77;;;167.07;;
14698;SDS011;7439;50.804;4.602;2023-04-01T02:51:43;173.03;;;166.03;;
14698;SDS011;7439;50.804;4.602;2023-04-01T02:54:11;168.10;;;161.43;;
14698;SDS011;7439;50.804;4.602;2023-04-01T02:56:38;176.50;;;169.50;;
14698;SDS011;7439;50.804;4.602;2023-04-01T02:59:05;181.03;;;174.20;;
14698;SDS011;7439;50.804;4.602;2023-04-01T03:01:33;186.17;;;178.90;;
14698;SDS011;7439;50.804;4.602;2023-04-01T03:04:01;183.03;;;175.77;;
14698;SDS011;7439;50.804;4.602;2023-04-01T03:06:29;183.80;;;176.33;;
14698;SDS011;7439;50.804;4.602;2023-04-01T03:08:57;185.73;;;178.67;;
14698;SDS011;7439;50.804;4.602;2023-04-01T03:11:24;185.27;;;178.17;;
14698;SDS011;7439;50.804;4.602;2023-04-01T03:13:52;175.67;;;168.77;;
14698;SDS011;7439;50.804;4.602;2023-04-01T03:16:19;178.70;;;171.37;;
14698;SDS011;7439;50.804;4.602;2023-04-01T03:18:46;183.67;;;176.20;;
14698;SDS011;7439;50.804;4.602;2023-04-01T03:21:16;187.93;;;180.73;;
14698;SDS011;7439;50.804;4.602;2023-04-01T03:23:44;176.10;;;169.00;;
14698;SDS011;7439;50.804;4.602;2023-04-01T03:26:11;187.67;;;180.30;;
14698;SDS011;7439;50.804;4.602;2023-04-01T03:28:39;188.07;;;180.93;;
14698;SDS011;7439;50.804;4.602;2023-04-01T03:31:06;184.00;;;177.10;;
14698;SDS011;7439;50.804;4.602;2023-04-01T03:33:34;197.17;;;189.63;;
14698;SDS011;7439;50.804;4.602;2023-04-01T03:36:01;189.50;;;182.37;;
14698;SDS011;7439;50.804;4.602;2023-04-01T03:38:33;193.00;;;185.67;;
14698;SDS011;7439;50.804;4.602;2023-04-01T03:41:01;194.03;;;186.40;;
14698;SDS011;7439;50.804;4.602;2023-04-01T03:43:28;210.17;;;202.17;;
14698;SDS011;7439;50.804;4.602;2023-04-01T03:45:55;216.87;;;208.53;;
14698;SDS011;7439;50.804;4.602;2023-04-01T03:48:23;218.43;;;210.07;;
14698;SDS011;7439;50.804;4.602;2023-04-01T03:50:51;224.87;;;216.07;;
14698;SDS011;7439;50.804;4.602;2023-04-01T03:53:18;225.33;;;216.53;;
14698;SDS011;7439;50.804;4.602;2023-04-01T03:55:47;217.87;;;209.00;;
14698;SDS011;7439;50.804;4.602;2023-04-01T03:58:16;229.77;;;220.87;;
14698;SDS011;7439;50.804;4.602;2023-04-01T04:00:43;232.37;;;223.30;;
14698;SDS011;7439;50.804;4.602;2023-04-01T04:03:11;248.70;;;238.93;;
14698;SDS011;7439;50.804;4.602;2023-04-01T04:05:45;234.00;;;224.70;;
14698;SDS011;7439;50.804;4.602;2023-04-01T04:08:13;250.77;;;241.10;;
14698;SDS011;7439;50.804;4.602;2023-04-01T04:10:40;249.57;;;239.60;;
14698;SDS011;7439;50.804;4.602;2023-04-01T04:13:09;246.37;;;236.57;;
14698;SDS011;7439;50.804;4.602;2023-04-01T04:15:36;248.43;;;238.77;;
14698;SDS011;7439;50.804;4.602;2023-04-01T04:18:05;244.43;;;234.03;;
14698;SDS011;7439;50.804;4.602;2023-04-01T04:20:32;247.70;;;237.60;;
14698;SDS011;7439;50.804;4.602;2023-04-01T04:23:00;257.17;;;246.80;;
14698;SDS011;7439;50.804;4.602;2023-04-01T04:25:27;265.40;;;254.93;;
14698;SDS011;7439;50.804;4.602;2023-04-01T04:27:55;265.00;;;254.60;;
14698;SDS011;7439;50.804;4.602;2023-04-01T04:30:23;260.83;;;250.47;;
14698;SDS011;7439;50.804;4.602;2023-04-01T04:32:50;252.53;;;243.00;;
14698;SDS011;7439;50.804;4.602;2023-04-01T04:35:18;251.13;;;240.73;;
14698;SDS011;7439;50.804;4.602;2023-04-01T04:37:45;258.93;;;248.73;;
14698;SDS011;7439;50.804;4.602;2023-04-01T04:40:13;262.40;;;252.43;;
14698;SDS011;7439;50.804;4.602;2023-04-01T04:42:40;258.40;;;247.93;;
14698;SDS011;7439;50.804;4.602;2023-04-01T04:45:08;243.30;;;234.00;;
14698;SDS011;7439;50.804;4.602;2023-04-01T04:47:37;236.67;;;227.63;;
14698;SDS011;7439;50.804;4.602;2023-04-01T04:50:05;227.10;;;218.80;;
14698;SDS011;7439;50.804;4.602;2023-04-01T04:52:33;246.57;;;237.57;;
14698;SDS011;7439;50.804;4.602;2023-04-01T04:55:00;257.00;;;247.67;;
14698;SDS011;7439;50.804;4.602;2023-04-01T04:57:28;256.90;;;247.27;;
14698;SDS011;7439;50.804;4.602;2023-04-01T04:59:55;266.00;;;256.40;;
14698;SDS011;7439;50.804;4.602;2023-04-01T05:02:22;259.20;;;249.53;;
14698;SDS011;7439;50.804;4.602;2023-04-01T05:04:51;259.67;;;250.20;;
14698;SDS011;7439;50.804;4.602;2023-04-01T05:07:19;264.50;;;254.70;;
14698;SDS011;7439;50.804;4.602;2023-04-01T05:09:47;258.20;;;248.70;;
14698;SDS011;7439;50.804;4.602;2023-04-01T05:12:14;254.63;;;245.50;;
14698;SDS011;7439;50.804;4.602;2023-04-01T05:14:42;264.50;;;254.63;;
14698;SDS011;7439;50.804;4.602;2023-04-01T05:17:09;272.93;;;262.63;;
14698;SDS011;7439;50.804;4.602;2023-04-01T05:19:37;276.53;;;266.37;;
14698;SDS011;7439;50.804;4.602;2023-04-01T05:22:05;284.10;;;273.60;;
14698;SDS011;7439;50.804;4.602;2023-04-01T05:24:33;289.27;;;278.53;;
14698;SDS011;7439;50.804;4.602;2023-04-01T05:27:00;294.47;;;283.57;;
14698;SDS011;7439;50.804;4.602;2023-04-01T05:29:29;298.50;;;287.20;;
14698;SDS011;7439;50.804;4.602;2023-04-01T05:31:56;290.23;;;279.53;;
14698;SDS011;7439;50.804;4.602;2023-04-01T05:34:24;291.73;;;281.07;;
14698;SDS011;7439;50.804;4.602;2023-04-01T05:36:51;295.03;;;284.03;;
14698;SDS011;7439;50.804;4.602;2023-04-01T05:39:20;298.37;;;287.37;;
14698;SDS011;7439;50.804;4.602;2023-04-01T05:41:48;299.13;;;287.87;;
14698;SDS011;7439;50.804;4.602;2023-04-01T05:44:16;308.80;;;297.33;;
14698;SDS011;7439;50.804;4.602;2023-04-01T05:46:44;291.87;;;281.17;;
14698;SDS011;7439;50.804;4.602;2023-04-01T05:49:11;308.67;;;296.97;;
14698;SDS011;7439;50.804;4.602;2023-04-01T05:51:39;300.67;;;289.53;;
14698;SDS011;7439;50.804;4.602;2023-04-01T05:54:08;303.57;;;292.27;;
14698;SDS011;7439;50.804;4.602;2023-04-01T05:56:36;283.90;;;272.97;;
14698;SDS011;7439;50.804;4.602;2023-04-01T05:59:04;290.80;;;279.53;;
14698;SDS011;7439;50.804;4.602;2023-04-01T06:01:31;285.00;;;274.13;;
14698;SDS011;7439;50.804;4.602;2023-04-01T06:03:59;294.60;;;283.37;;
14698;SDS011;7439;50.804;4.602;2023-04-01T06:06:27;285.33;;;274.23;;
14698;SDS011;7439;50.804;4.602;2023-04-01T06:08:55;283.97;;;272.80;;
14698;SDS011;7439;50.804;4.602;2023-04-01T06:11:26;286.67;;;275.90;;
14698;SDS011;7439;50.804;4.602;2023-04-01T06:14:04;283.43;;;272.83;;
14698;SDS011;7439;50.804;4.602;2023-04-01T06:16:36;293.63;;;282.43;;
14698;SDS011;7439;50.804;4.602;2023-04-01T06:19:09;297.50;;;285.90;;
14698;SDS011;7439;50.804;4.602;2023-04-01T06:21:49;289.73;;;278.83;;
14698;SDS011;7439;50.804;4.602;2023-04-01T06:24:26;301.07;;;289.57;;
14698;SDS011;7439;50.804;4.602;2023-04-01T06:26:56;290.00;;;278.83;;
14698;SDS011;7439;50.804;4.602;2023-04-01T06:29:43;298.47;;;286.77;;
14698;SDS011;7439;50.804;4.602;2023-04-01T06:32:28;297.90;;;286.40;;
14698;SDS011;7439;50.804;4.602;2023-04-01T06:35:02;285.97;;;274.53;;
14698;SDS011;7439;50.804;4.602;2023-04-01T06:37:41;283.33;;;272.63;;
14698;SDS011;7439;50.804;4.602;2023-04-01T06:40:22;293.57;;;282.37;;
14698;SDS011;7439;50.804;4.602;2023-04-01T06:42:57;296.53;;;285.30;;
14698;SDS011;7439;50.804;4.602;2023-04-01T06:45:31;295.37;;;283.83;;
14698;SDS011;7439;50.804;4.602;2023-04-01T06:48:09;289.10;;;278.03;;
14698;SDS011;7439;50.804;4.602;2023-04-01T06:50:40;305.17;;;293.67;;
14698;SDS011;7439;50.804;4.602;2023-04-01T06:53:10;304.03;;;292.57;;
14698;SDS011;7439;50.804;4.602;2023-04-01T06:55:40;306.70;;;294.63;;
14698;SDS011;7439;50.804;4.602;2023-04-01T06:58:10;317.67;;;305.17;;
14698;SDS011;7439;50.804;4.602;2023-04-01T07:00:42;314.40;;;302.50;;
14698;SDS011;7439;50.804;4.602;2023-04-01T07:03:14;321.07;;;308.67;;
14698;SDS011;7439;50.804;4.602;2023-04-01T07:05:43;332.63;;;319.20;;
14698;SDS011;7439;50.804;4.602;2023-04-01T07:08:11;333.97;;;321.07;;
14698;SDS011;7439;50.804;4.602;2023-04-01T07:10:42;346.23;;;332.97;;
14698;SDS011;7439;50.804;4.602;2023-04-01T07:13:12;337.10;;;324.23;;
14698;SDS011;7439;50.804;4.602;2023-04-01T07:15:42;336.63;;;323.53;;
14698;SDS011;7439;50.804;4.602;2023-04-01T07:18:11;352.87;;;339.53;;
14698;SDS011;7439;50.804;4.602;2023-04-01T07:20:39;348.07;;;335.10;;
14698;SDS011;7439;50.804;4.602;2023-04-01T07:23:08;360.37;;;346.73;;
14698;SDS011;7439;50.804;4.602;2023-04-01T07:25:38;356.13;;;342.67;;
14698;SDS011;7439;50.804;4.602;2023-04-01T07:28:11;337.27;;;324.50;;
14698;SDS011;7439;50.804;4.602;2023-04-01T07:30:43;333.00;;;320.63;;
14698;SDS011;7439;50.804;4.602;2023-04-01T07:33:14;322.37;;;310.37;;
14698;SDS011;7439;50.804;4.602;2023-04-01T07:35:44;325.13;;;312.63;;
14698;SDS011;7439;50.804;4.602;2023-04-01T07:38:16;318.63;;;306.70;;
14698;SDS011;7439;50.804;4.602;2023-04-01T07:40:48;323.87;;;311.80;;
14698;SDS011;7439;50.804;4.602;2023-04-01T07:43:27;326.53;;;314.10;;
14698;SDS011;7439;50.804;4.602;2023-04-01T07:45:59;325.67;;;313.60;;
14698;SDS011;7439;50.804;4.602;2023-04-01T07:48:30;312.50;;;300.90;;
14698;SDS011;7439;50.804;4.602;2023-04-01T07:51:01;313.00;;;301.47;;
14698;SDS011;7439;50.804;4.602;2023-04-01T07:53:31;316.17;;;304.60;;
14698;SDS011;7439;50.804;4.602;2023-04-01T07:56:02;301.43;;;290.57;;
14698;SDS011;7439;50.804;4.602;2023-04-01T07:58:34;300.40;;;289.57;;
14698;SDS011;7439;50.804;4.602;2023-04-01T08:01:05;293.20;;;282.57;;
14698;SDS011;7439;50.804;4.602;2023-04-01T08:03:42;300.87;;;289.87;;
14698;SDS011;7439;50.804;4.602;2023-04-01T08:06:13;308.10;;;297.00;;
14698;SDS011;7439;50.804;4.602;2023-04-01T08:08:45;310.93;;;299.63;;
14698;SDS011;7439;50.804;4.602;2023-04-01T08:11:19;312.27;;;300.90;;
14698;SDS011;7439;50.804;4.602;2023-04-01T08:13:50;318.20;;;306.60;;
14698;SDS011;7439;50.804;4.602;2023-04-01T08:16:26;309.37;;;298.20;;
14698;SDS011;7439;50.804;4.602;2023-04-01T08:19:00;322.43;;;310.83;;
14698;SDS011;7439;50.804;4.602;2023-04-01T08:21:31;325.23;;;313.53;;
14698;SDS011;7439;50.804;4.602;2023-04-01T08:24:00;349.30;;;336.60;;
14698;SDS011;7439;50.804;4.602;2023-04-01T08:26:34;347.83;;;335.33;;
14698;SDS011;7439;50.804;4.602;2023-04-01T08:29:03;353.73;;;340.90;;
14698;SDS011;7439;50.804;4.602;2023-04-01T08:31:32;362.27;;;349.00;;
14698;SDS011;7439;50.804;4.602;2023-04-01T08:34:03;348.10;;;335.47;;
14698;SDS011;7439;50.804;4.602;2023-04-01T08:36:33;362.90;;;349.73;;
14698;SDS011;7439;50.804;4.602;2023-04-01T08:39:02;360.57;;;347.43;;
14698;SDS011;7439;50.804;4.602;2023-04-01T08:44:24;339.83;;;327.60;;
14698;SDS011;7439;50.804;4.602;2023-04-01T08:49:51;351.23;;;338.50;;
14698;SDS011;7439;50.804;4.602;2023-04-01T08:55:24;360.43;;;347.27;;
14698;SDS011;7439;50.804;4.602;2023-04-01T09:00:50;333.00;;;320.93;;
14698;SDS011;7439;50.804;4.602;2023-04-01T09:06:23;354.03;;;341.27;;
14698;SDS011;7439;50.804;4.602;2023-04-01T09:08:57;350.03;;;337.40;;
14698;SDS011;7439;50.804;4.602;2023-04-01T09:11:30;350.00;;;337.37;;
14698;SDS011;7439;50.804;4.602;2023-04-01T09:17:01;377.10;;;363.03;;
14698;SDS011;7439;50.804;4.602;2023-04-01T09:19:40;378.90;;;365.03;;
14698;SDS011;7439;50.804;4.602;2023-04-01T09:22:21;373.93;;;360.30;;
14698;SDS011;7439;50.804;4.602;2023-04-01T09:25:05;390.00;;;375.50;;
14698;SDS011;7439;50.804;4.602;2023-04-01T09:27:33;401.10;;;386.37;;
14698;SDS011;7439;50.804;4.602;2023-04-01T09:30:13;377.50;;;363.67;;
14698;SDS011;7439;50.804;4.602;2023-04-01T09:35:31;386.50;;;372.47;;
14698;SDS011;7439;50.804;4.602;2023-04-01T09:38:08;397.77;;;383.10;;
14698;SDS011;7439;50.804;4.602;2023-04-01T09:40:41;426.03;;;410.30;;
14698;SDS011;7439;50.804;4.602;2023-04-01T09:43:25;415.93;;;400.53;;
14698;SDS011;7439;50.804;4.602;2023-04-01T09:46:06;391.17;;;376.60;;
14698;SDS011;7439;50.804;4.602;2023-04-01T09:48:46;377.07;;;363.10;;
14698;SDS011;7439;50.804;4.602;2023-04-01T09:51:23;383.37;;;369.30;;
14698;SDS011;7439;50.804;4.602;2023-04-01T09:53:59;400.27;;;385.27;;
14698;SDS011;7439;50.804;4.602;2023-04-01T10:02:32;342.17;;;329.80;;
14698;SDS011;7439;50.804;4.602;2023-04-01T10:05:21;395.27;;;380.70;;
14698;SDS011;7439;50.804;4.602;2023-04-01T10:08:02;372.87;;;359.23;;
14698;SDS011;7439;50.804;4.602;2023-04-01T10:10:44;405.13;;;389.97;;
14698;SDS011;7439;50.804;4.602;2023-04-01T10:21:46;455.37;;;438.20;;
14698;SDS011;7439;50.804;4.602;2023-04-01T10:24:38;449.00;;;432.10;;
14698;SDS011;7439;50.804;4.602;2023-04-01T10:43:59;457.87;;;440.43;;
14698;SDS011;7439;50.804;4.602;2023-04-01T10:54:47;452.57;;;435.57;;
14698;SDS011;7439;50.804;4.602;2023-04-01T10:57:20;469.20;;;451.23;;
14698;SDS011;7439;50.804;4.602;2023-04-01T11:00:04;474.40;;;456.13;;
14698;SDS011;7439;50.804;4.602;2023-04-01T11:02:50;467.07;;;449.17;;
14698;SDS011;7439;50.804;4.602;2023-04-01T11:05:49;477.57;;;459.20;;
14698;SDS011;7439;50.804;4.602;2023-04-01T11:14:24;489.87;;;471.10;;
14698;SDS011;7439;50.804;4.602;2023-04-01T11:17:13;466.77;;;449.03;;
14698;SDS011;7439;50.804;4.602;2023-04-01T11:23:07;439.37;;;422.97;;
14698;SDS011;7439;50.804;4.602;2023-04-01T11:25:39;473.40;;;455.57;;
14698;SDS011;7439;50.804;4.602;2023-04-01T11:28:17;475.73;;;457.53;;
14698;SDS011;7439;50.804;4.602;2023-04-01T11:30:59;445.33;;;428.57;;
14698;SDS011;7439;50.804;4.602;2023-04-01T11:33:33;335.23;;;323.20;;
14698;SDS011;7439;50.804;4.602;2023-04-01T11:36:15;411.10;;;395.97;;
14698;SDS011;7439;50.804;4.602;2023-04-01T11:38:51;436.13;;;419.80;;
14698;SDS011;7439;50.804;4.602;2023-04-01T11:41:24;458.83;;;441.63;;
14698;SDS011;7439;50.804;4.602;2023-04-01T11:43:56;501.07;;;481.83;;
14698;SDS011;7439;50.804;4.602;2023-04-01T11:46:33;549.37;;;527.93;;
14698;SDS011;7439;50.804;4.602;2023-04-01T11:49:11;568.43;;;545.97;;
14698;SDS011;7439;50.804;4.602;2023-04-01T11:51:45;514.70;;;494.73;;
14698;SDS011;7439;50.804;4.602;2023-04-01T11:54:24;552.23;;;530.33;;
14698;SDS011;7439;50.804;4.602;2023-04-01T11:56:59;524.17;;;503.43;;
14698;SDS011;7439;50.804;4.602;2023-04-01T11:59:44;556.73;;;534.77;;
14698;SDS011;7439;50.804;4.602;2023-04-01T12:02:16;533.50;;;512.40;;
14698;SDS011;7439;50.804;4.602;2023-04-01T12:07:42;479.53;;;461.30;;
14698;SDS011;7439;50.804;4.602;2023-04-01T12:10:15;487.47;;;468.73;;
14698;SDS011;7439;50.804;4.602;2023-04-01T12:12:46;468.37;;;450.37;;
14698;SDS011;7439;50.804;4.602;2023-04-01T12:15:19;472.00;;;453.93;;
14698;SDS011;7439;50.804;4.602;2023-04-01T12:17:50;495.37;;;476.07;;
14698;SDS011;7439;50.804;4.602;2023-04-01T12:20:25;510.77;;;490.83;;
14698;SDS011;7439;50.804;4.602;2023-04-01T12:22:58;522.17;;;501.57;;
14698;SDS011;7439;50.804;4.602;2023-04-01T12:25:35;529.43;;;508.30;;
14698;SDS011;7439;50.804;4.602;2023-04-01T12:28:06;510.73;;;490.23;;
14698;SDS011;7439;50.804;4.602;2023-04-01T12:30:49;507.60;;;487.67;;
14698;SDS011;7439;50.804;4.602;2023-04-01T12:33:34;528.03;;;507.03;;
14698;SDS011;7439;50.804;4.602;2023-04-01T12:36:08;492.57;;;473.20;;
14698;SDS011;7439;50.804;4.602;2023-04-01T12:38:40;501.83;;;482.00;;
14698;SDS011;7439;50.804;4.602;2023-04-01T12:41:13;495.60;;;475.97;;
14698;SDS011;7439;50.804;4.602;2023-04-01T12:46:32;526.47;;;505.27;;
14698;SDS011;7439;50.804;4.602;2023-04-01T12:49:16;495.13;;;475.67;;
14698;SDS011;7439;50.804;4.602;2023-04-01T12:51:54;506.67;;;486.77;;
14698;SDS011;7439;50.804;4.602;2023-04-01T12:57:10;459.43;;;441.27;;
14698;SDS011;7439;50.804;4.602;2023-04-01T13:05:18;445.13;;;427.97;;
14698;SDS011;7439;50.804;4.602;2023-04-01T13:07:57;440.77;;;423.63;;
14698;SDS011;7439;50.804;4.602;2023-04-01T13:10:27;435.70;;;418.57;;
14698;SDS011;7439;50.804;4.602;2023-04-01T13:13:03;449.70;;;432.37;;
14698;SDS011;7439;50.804;4.602;2023-04-01T13:15:37;441.37;;;424.40;;
14698;SDS011;7439;50.804;4.602;2023-04-01T13:18:14;435.97;;;419.17;;
14698;SDS011;7439;50.804;4.602;2023-04-01T13:20:44;449.57;;;432.33;;
14698;SDS011;7439;50.804;4.602;2023-04-01T13:23:24;429.57;;;413.37;;
14698;SDS011;7439;50.804;4.602;2023-04-01T13:25:54;419.87;;;404.03;;
14698;SDS011;7439;50.804;4.602;2023-04-01T13:28:32;434.27;;;417.57;;
14698;SDS011;7439;50.804;4.602;2023-04-01T13:31:05;444.87;;;427.90;;
14698;SDS011;7439;50.804;4.602;2023-04-01T13:33:38;472.80;;;454.37;;
14698;SDS011;7439;50.804;4.602;2023-04-01T13:36:16;444.03;;;426.93;;
14698;SDS011;7439;50.804;4.602;2023-04-01T13:39:09;428.97;;;412.53;;
14698;SDS011;7439;50.804;4.602;2023-04-01T13:41:46;442.23;;;425.37;;
14698;SDS011;7439;50.804;4.602;2023-04-01T13:44:18;438.47;;;421.80;;
14698;SDS011;7439;50.804;4.602;2023-04-01T13:46:52;404.97;;;389.77;;
14698;SDS011;7439;50.804;4.602;2023-04-01T13:52:17;445.10;;;428.13;;
14698;SDS011;7439;50.804;4.602;2023-04-01T13:57:48;463.37;;;445.77;;
14698;SDS011;7439;50.804;4.602;2023-04-01T14:00:25;460.57;;;443.00;;
14698;SDS011;7439;50.804;4.602;2023-04-01T14:03:03;443.47;;;426.57;;
14698;SDS011;7439;50.804;4.602;2023-04-01T14:05:38;497.10;;;477.90;;
14698;SDS011;7439;50.804;4.602;2023-04-01T14:08:15;502.37;;;482.73;;
14698;SDS011;7439;50.804;4.602;2023-04-01T14:10:45;480.03;;;461.80;;
14698;SDS011;7439;50.804;4.602;2023-04-01T14:13:20;482.90;;;464.20;;
14698;SDS011;7439;50.804;4.602;2023-04-01T14:15:55;518.00;;;497.83;;
14698;SDS011;7439;50.804;4.602;2023-04-01T14:18:39;494.23;;;475.27;;
14698;SDS011;7439;50.804;4.602;2023-04-01T14:21:16;492.77;;;473.50;;
14698;SDS011;7439;50.804;4.602;2023-04-01T14:23:49;509.17;;;489.07;;
14698;SDS011;7439;50.804;4.602;2023-04-01T14:26:21;545.67;;;524.20;;
14698;SDS011;7439;50.804;4.602;2023-04-01T14:28:52;541.90;;;520.57;;
14698;SDS011;7439;50.804;4.602;2023-04-01T14:31:30;546.87;;;525.13;;
14698;SDS011;7439;50.804;4.602;2023-04-01T14:34:00;528.80;;;508.03;;
14698;SDS011;7439;50.804;4.602;2023-04-01T14:36:39;578.27;;;554.33;;
14698;SDS011;7439;50.804;4.602;2023-04-01T14:39:15;599.87;;;575.33;;
14698;SDS011;7439;50.804;4.602;2023-04-01T14:41:48;589.27;;;565.33;;
14698;SDS011;7439;50.804;4.602;2023-04-01T14:44:27;541.40;;;520.00;;
14698;SDS011;7439;50.804;4.602;2023-04-01T14:47:04;559.23;;;536.93;;
14698;SDS011;7439;50.804;4.602;2023-04-01T14:49:35;514.33;;;493.90;;
14698;SDS011;7439;50.804;4.602;2023-04-01T14:52:05;493.97;;;474.67;;
14698;SDS011;7439;50.804;4.602;2023-04-01T14:54:36;572.50;;;549.20;;
14698;SDS011;7439;50.804;4.602;2023-04-01T14:57:09;583.03;;;559.10;;
14698;SDS011;7439;50.804;4.602;2023-04-01T14:59:39;576.77;;;553.30;;
14698;SDS011;7439;50.804;4.602;2023-04-01T15:02:11;600.70;;;576.00;;
14698;SDS011;7439;50.804;4.602;2023-04-01T15:04:44;583.70;;;559.93;;
14698;SDS011;7439;50.804;4.602;2023-04-01T15:07:35;577.03;;;553.63;;
14698;SDS011;7439;50.804;4.602;2023-04-01T15:10:08;587.57;;;563.47;;
14698;SDS011;7439;50.804;4.602;2023-04-01T15:12:46;578.40;;;554.73;;
14698;SDS011;7439;50.804;4.602;2023-04-01T15:15:20;557.13;;;534.80;;
14698;SDS011;7439;50.804;4.602;2023-04-01T15:17:55;555.43;;;532.77;;
14698;SDS011;7439;50.804;4.602;2023-04-01T15:20:31;537.77;;;516.30;;
14698;SDS011;7439;50.804;4.602;2023-04-01T15:23:08;546.50;;;524.30;;
14698;SDS011;7439;50.804;4.602;2023-04-01T15:25:45;548.67;;;526.37;;
14698;SDS011;7439;50.804;4.602;2023-04-01T15:28:17;526.43;;;505.27;;
14698;SDS011;7439;50.804;4.602;2023-04-01T15:30:50;531.03;;;509.57;;
14698;SDS011;7439;50.804;4.602;2023-04-01T15:33:26;576.40;;;552.67;;
14698;SDS011;7439;50.804;4.602;2023-04-01T15:35:57;572.53;;;548.93;;
14698;SDS011;7439;50.804;4.602;2023-04-01T15:38:30;540.57;;;518.70;;
14698;SDS011;7439;50.804;4.602;2023-04-01T15:41:07;532.93;;;511.57;;
14698;SDS011;7439;50.804;4.602;2023-04-01T15:43:38;549.20;;;527.00;;
14698;SDS011;7439;50.804;4.602;2023-04-01T15:49:14;523.90;;;502.63;;
14698;SDS011;7439;50.804;4.602;2023-04-01T15:54:32;541.73;;;519.43;;
14698;SDS011;7439;50.804;4.602;2023-04-01T15:57:10;533.40;;;511.67;;
14698;SDS011;7439;50.804;4.602;2023-04-01T15:59:47;539.57;;;517.20;;
14698;SDS011;7439;50.804;4.602;2023-04-01T16:02:21;571.73;;;548.13;;
14698;SDS011;7439;50.804;4.602;2023-04-01T16:04:54;542.87;;;520.97;;
14698;SDS011;7439;50.804;4.602;2023-04-01T16:10:07;550.20;;;527.77;;
14698;SDS011;7439;50.804;4.602;2023-04-01T16:12:40;541.90;;;520.03;;
14698;SDS011;7439;50.804;4.602;2023-04-01T16:15:14;547.57;;;525.27;;
14698;SDS011;7439;50.804;4.602;2023-04-01T16:20:34;544.40;;;522.37;;
14698;SDS011;7439;50.804;4.602;2023-04-01T16:23:10;559.30;;;536.40;;